LKTB

Brno-Tuřany Airport

Brno, Czech Republic
METAR LKTB 171900Z 03005KT 340V080 CAVOK 02/M07 Q1031 NOSIG
Observed Flight Rules
Nov-17 @ 19:00 UTC (28 minutes ago) Visual Flight Rules
Wind Visibility Clouds
30° at 5 knots 10,000+ meters
  • Clear skies
Temperatures Readings
Current 2°C / 36°F
Dewpoint -7°C / 19°F
Humidity 52%
Altimeter 30.44" Hg
Pressure 1031 hPa
Elevation 246
METAR LKTB 171900Z 03005KT 340V080 CAVOK 02/M07 Q1031 NOSIG
Observed Flight Rules
Nov-17 @ 19:00 UTC
(28 minutes ago)
VFR
Wind Visibility
30° at 5 knots 10,000+ meters
Clouds
  • Clear skies
Temperature Dewpoint
2°C / 36°F -7°C / 19°F
Humidity Altimeter Pressure
52% 30.44" Hg 1031 hPa